sensor_id;sensor_type;location;lat;lon;timestamp;temperature;humidity
73939;DHT22;62291;47.554;8.504;2023-05-16T00:02:24;11.10;99.90
73939;DHT22;62291;47.554;8.504;2023-05-16T00:04:50;11.20;99.90
73939;DHT22;62291;47.554;8.504;2023-05-16T00:07:16;11.20;99.90
73939;DHT22;62291;47.554;8.504;2023-05-16T00:09:41;11.20;99.90
73939;DHT22;62291;47.554;8.504;2023-05-16T00:12:07;11.10;99.90
73939;DHT22;62291;47.554;8.504;2023-05-16T00:14:33;11.10;99.90
73939;DHT22;62291;47.554;8.504;2023-05-16T00:17:00;11.00;99.90
73939;DHT22;62291;47.554;8.504;2023-05-16T00:19:26;11.00;99.90
73939;DHT22;62291;47.554;8.504;2023-05-16T00:21:54;11.10;99.90
73939;DHT22;62291;47.554;8.504;2023-05-16T00:24:19;11.10;99.90
73939;DHT22;62291;47.554;8.504;2023-05-16T00:26:45;11.10;99.90
73939;DHT22;62291;47.554;8.504;2023-05-16T00:29:11;11.20;99.90
73939;DHT22;62291;47.554;8.504;2023-05-16T00:31:36;11.20;99.90
73939;DHT22;62291;47.554;8.504;2023-05-16T00:34:02;11.20;99.90
73939;DHT22;62291;47.554;8.504;2023-05-16T00:36:27;11.20;99.90
73939;DHT22;62291;47.554;8.504;2023-05-16T00:38:53;11.30;99.90
73939;DHT22;62291;47.554;8.504;2023-05-16T00:41:19;11.30;99.90
73939;DHT22;62291;47.554;8.504;2023-05-16T00:43:45;11.30;99.90
73939;DHT22;62291;47.554;8.504;2023-05-16T00:46:11;11.30;99.90
73939;DHT22;62291;47.554;8.504;2023-05-16T00:48:36;11.20;99.90
73939;DHT22;62291;47.554;8.504;2023-05-16T00:51:02;11.10;99.90
73939;DHT22;62291;47.554;8.504;2023-05-16T00:53:27;11.10;99.90
73939;DHT22;62291;47.554;8.504;2023-05-16T00:55:53;11.10;99.90
73939;DHT22;62291;47.554;8.504;2023-05-16T00:58:19;11.10;99.90
73939;DHT22;62291;47.554;8.504;2023-05-16T01:00:46;11.10;99.90
73939;DHT22;62291;47.554;8.504;2023-05-16T01:03:11;11.10;99.90
73939;DHT22;62291;47.554;8.504;2023-05-16T01:05:37;11.00;99.90
73939;DHT22;62291;47.554;8.504;2023-05-16T01:08:03;11.00;99.90
73939;DHT22;62291;47.554;8.504;2023-05-16T01:10:31;11.00;99.90
73939;DHT22;62291;47.554;8.504;2023-05-16T01:13:05;11.10;99.90
73939;DHT22;62291;47.554;8.504;2023-05-16T01:18:29;11.20;99.90
73939;DHT22;62291;47.554;8.504;2023-05-16T01:20:58;11.20;99.90
73939;DHT22;62291;47.554;8.504;2023-05-16T01:26:25;11.20;99.90
73939;DHT22;62291;47.554;8.504;2023-05-16T01:28:51;11.20;99.90
73939;DHT22;62291;47.554;8.504;2023-05-16T01:31:17;11.20;99.90
73939;DHT22;62291;47.554;8.504;2023-05-16T01:33:42;11.30;99.90
73939;DHT22;62291;47.554;8.504;2023-05-16T01:38:38;11.40;99.90
73939;DHT22;62291;47.554;8.504;2023-05-16T01:43:45;11.40;99.90
73939;DHT22;62291;47.554;8.504;2023-05-16T01:46:18;11.40;99.90
73939;DHT22;62291;47.554;8.504;2023-05-16T01:49:07;11.40;99.90
73939;DHT22;62291;47.554;8.504;2023-05-16T01:51:34;11.40;99.90
73939;DHT22;62291;47.554;8.504;2023-05-16T01:54:04;11.40;99.90
73939;DHT22;62291;47.554;8.504;2023-05-16T01:56:30;11.40;99.90
73939;DHT22;62291;47.554;8.504;2023-05-16T01:58:56;11.40;99.90
73939;DHT22;62291;47.554;8.504;2023-05-16T02:01:23;11.20;99.90
73939;DHT22;62291;47.554;8.504;2023-05-16T02:03:48;11.20;99.90
73939;DHT22;62291;47.554;8.504;2023-05-16T02:06:15;11.20;99.90
73939;DHT22;62291;47.554;8.504;2023-05-16T02:08:40;11.30;99.90
73939;DHT22;62291;47.554;8.504;2023-05-16T02:11:06;11.30;99.90
73939;DHT22;62291;47.554;8.504;2023-05-16T02:13:32;11.30;99.90
73939;DHT22;62291;47.554;8.504;2023-05-16T02:15:57;11.20;99.90
73939;DHT22;62291;47.554;8.504;2023-05-16T02:18:23;11.20;99.90
73939;DHT22;62291;47.554;8.504;2023-05-16T02:20:48;11.20;99.90
73939;DHT22;62291;47.554;8.504;2023-05-16T02:23:14;11.30;99.90
73939;DHT22;62291;47.554;8.504;2023-05-16T02:25:40;11.30;99.90
73939;DHT22;62291;47.554;8.504;2023-05-16T02:28:05;11.30;99.90
73939;DHT22;62291;47.554;8.504;2023-05-16T02:30:31;11.40;99.90
73939;DHT22;62291;47.554;8.504;2023-05-16T02:32:56;11.40;99.90
73939;DHT22;62291;47.554;8.504;2023-05-16T02:35:22;11.30;99.90
73939;DHT22;62291;47.554;8.504;2023-05-16T02:37:48;11.30;99.90
73939;DHT22;62291;47.554;8.504;2023-05-16T02:40:13;11.40;99.90
73939;DHT22;62291;47.554;8.504;2023-05-16T02:42:39;11.40;99.90
73939;DHT22;62291;47.554;8.504;2023-05-16T02:45:05;11.40;99.90
73939;DHT22;62291;47.554;8.504;2023-05-16T02:47:30;11.30;99.90
73939;DHT22;62291;47.554;8.504;2023-05-16T02:49:56;11.30;99.90
73939;DHT22;62291;47.554;8.504;2023-05-16T02:52:22;11.30;99.90
73939;DHT22;62291;47.554;8.504;2023-05-16T02:54:47;11.30;99.90
73939;DHT22;62291;47.554;8.504;2023-05-16T02:57:13;11.30;99.90
73939;DHT22;62291;47.554;8.504;2023-05-16T02:59:38;11.30;99.90
73939;DHT22;62291;47.554;8.504;2023-05-16T03:02:04;11.30;99.90
73939;DHT22;62291;47.554;8.504;2023-05-16T03:04:29;11.30;99.90
73939;DHT22;62291;47.554;8.504;2023-05-16T03:06:55;11.30;99.90
73939;DHT22;62291;47.554;8.504;2023-05-16T03:09:21;11.30;99.90
73939;DHT22;62291;47.554;8.504;2023-05-16T03:11:46;11.30;99.90
73939;DHT22;62291;47.554;8.504;2023-05-16T03:14:12;11.30;99.90
73939;DHT22;62291;47.554;8.504;2023-05-16T03:16:37;11.30;99.90
73939;DHT22;62291;47.554;8.504;2023-05-16T03:19:04;11.30;99.90
73939;DHT22;62291;47.554;8.504;2023-05-16T03:21:29;11.30;99.90
73939;DHT22;62291;47.554;8.504;2023-05-16T03:23:56;11.30;99.90
73939;DHT22;62291;47.554;8.504;2023-05-16T03:26:22;11.30;99.90
73939;DHT22;62291;47.554;8.504;2023-05-16T03:28:48;11.30;99.90
73939;DHT22;62291;47.554;8.504;2023-05-16T03:31:15;11.30;99.90
73939;DHT22;62291;47.554;8.504;2023-05-16T03:33:41;11.30;99.90
73939;DHT22;62291;47.554;8.504;2023-05-16T03:36:07;11.30;99.90
73939;DHT22;62291;47.554;8.504;2023-05-16T03:38:32;11.30;99.90
73939;DHT22;62291;47.554;8.504;2023-05-16T03:40:58;11.20;99.90
73939;DHT22;62291;47.554;8.504;2023-05-16T03:43:23;11.30;99.90
73939;DHT22;62291;47.554;8.504;2023-05-16T03:45:49;11.30;99.90
73939;DHT22;62291;47.554;8.504;2023-05-16T03:48:14;11.20;99.90
73939;DHT22;62291;47.554;8.504;2023-05-16T03:50:43;11.20;99.90
73939;DHT22;62291;47.554;8.504;2023-05-16T03:53:09;11.10;99.90
73939;DHT22;62291;47.554;8.504;2023-05-16T03:55:34;11.10;99.90
73939;DHT22;62291;47.554;8.504;2023-05-16T03:58:00;11.20;99.90
73939;DHT22;62291;47.554;8.504;2023-05-16T04:00:26;11.10;99.90
73939;DHT22;62291;47.554;8.504;2023-05-16T04:02:52;11.20;99.90
73939;DHT22;62291;47.554;8.504;2023-05-16T04:05:17;11.20;99.90
73939;DHT22;62291;47.554;8.504;2023-05-16T04:07:43;11.20;99.90
73939;DHT22;62291;47.554;8.504;2023-05-16T04:10:08;11.30;99.90
73939;DHT22;62291;47.554;8.504;2023-05-16T04:12:34;11.30;99.90
73939;DHT22;62291;47.554;8.504;2023-05-16T04:15:01;11.40;99.90
73939;DHT22;62291;47.554;8.504;2023-05-16T04:17:26;11.50;99.90
73939;DHT22;62291;47.554;8.504;2023-05-16T04:19:52;11.50;99.90
73939;DHT22;62291;47.554;8.504;2023-05-16T04:22:19;11.40;99.90
73939;DHT22;62291;47.554;8.504;2023-05-16T04:24:45;11.50;99.90
73939;DHT22;62291;47.554;8.504;2023-05-16T04:27:10;11.50;99.90
73939;DHT22;62291;47.554;8.504;2023-05-16T04:29:36;11.50;99.90
73939;DHT22;62291;47.554;8.504;2023-05-16T04:32:02;11.50;99.90
73939;DHT22;62291;47.554;8.504;2023-05-16T04:34:27;11.50;99.90
73939;DHT22;62291;47.554;8.504;2023-05-16T04:36:53;11.60;99.90
73939;DHT22;62291;47.554;8.504;2023-05-16T04:39:19;11.60;99.90
73939;DHT22;62291;47.554;8.504;2023-05-16T04:41:45;11.60;99.90
73939;DHT22;62291;47.554;8.504;2023-05-16T04:44:10;11.60;99.90
73939;DHT22;62291;47.554;8.504;2023-05-16T04:46:36;11.60;99.90
73939;DHT22;62291;47.554;8.504;2023-05-16T04:49:01;11.50;99.90
73939;DHT22;62291;47.554;8.504;2023-05-16T04:51:27;11.40;99.90
73939;DHT22;62291;47.554;8.504;2023-05-16T04:53:53;11.50;99.90
73939;DHT22;62291;47.554;8.504;2023-05-16T04:56:19;11.50;99.90
73939;DHT22;62291;47.554;8.504;2023-05-16T04:58:44;11.50;99.90
73939;DHT22;62291;47.554;8.504;2023-05-16T05:01:10;11.60;99.90
73939;DHT22;62291;47.554;8.504;2023-05-16T05:03:36;11.60;99.90
73939;DHT22;62291;47.554;8.504;2023-05-16T05:06:02;11.60;99.90
73939;DHT22;62291;47.554;8.504;2023-05-16T05:08:27;11.60;99.90
73939;DHT22;62291;47.554;8.504;2023-05-16T05:10:54;11.60;99.90
73939;DHT22;62291;47.554;8.504;2023-05-16T05:13:20;11.50;99.90
73939;DHT22;62291;47.554;8.504;2023-05-16T05:15:45;11.60;99.90
73939;DHT22;62291;47.554;8.504;2023-05-16T05:18:11;11.70;99.90
73939;DHT22;62291;47.554;8.504;2023-05-16T05:20:36;11.70;99.90
73939;DHT22;62291;47.554;8.504;2023-05-16T05:23:02;11.70;99.90
73939;DHT22;62291;47.554;8.504;2023-05-16T05:25:27;11.80;99.90
73939;DHT22;62291;47.554;8.504;2023-05-16T05:27:53;11.80;99.90
73939;DHT22;62291;47.554;8.504;2023-05-16T05:30:18;11.80;99.90
73939;DHT22;62291;47.554;8.504;2023-05-16T05:32:44;11.90;99.90
73939;DHT22;62291;47.554;8.504;2023-05-16T05:35:09;11.90;99.90
73939;DHT22;62291;47.554;8.504;2023-05-16T05:37:35;11.90;99.90
73939;DHT22;62291;47.554;8.504;2023-05-16T05:40:01;12.00;99.90
73939;DHT22;62291;47.554;8.504;2023-05-16T05:42:27;12.00;99.90
73939;DHT22;62291;47.554;8.504;2023-05-16T05:44:52;12.00;99.90
73939;DHT22;62291;47.554;8.504;2023-05-16T05:47:18;12.10;99.90
73939;DHT22;62291;47.554;8.504;2023-05-16T05:49:44;12.00;99.90
73939;DHT22;62291;47.554;8.504;2023-05-16T05:52:09;12.00;99.90
73939;DHT22;62291;47.554;8.504;2023-05-16T05:54:35;12.00;99.90
73939;DHT22;62291;47.554;8.504;2023-05-16T05:57:01;12.00;99.90
73939;DHT22;62291;47.554;8.504;2023-05-16T05:59:26;12.10;99.90
73939;DHT22;62291;47.554;8.504;2023-05-16T06:01:52;12.10;99.90
73939;DHT22;62291;47.554;8.504;2023-05-16T06:04:18;12.20;99.90
73939;DHT22;62291;47.554;8.504;2023-05-16T06:06:44;12.20;99.90
73939;DHT22;62291;47.554;8.504;2023-05-16T06:09:09;12.20;99.90
73939;DHT22;62291;47.554;8.504;2023-05-16T06:11:35;12.20;99.90
73939;DHT22;62291;47.554;8.504;2023-05-16T06:14:01;12.30;99.90
73939;DHT22;62291;47.554;8.504;2023-05-16T06:16:26;12.30;99.90
73939;DHT22;62291;47.554;8.504;2023-05-16T06:18:52;12.40;99.90
73939;DHT22;62291;47.554;8.504;2023-05-16T06:21:17;12.40;99.90
73939;DHT22;62291;47.554;8.504;2023-05-16T06:23:43;12.40;99.90
73939;DHT22;62291;47.554;8.504;2023-05-16T06:26:08;12.60;99.90
73939;DHT22;62291;47.554;8.504;2023-05-16T06:28:34;12.60;99.90
73939;DHT22;62291;47.554;8.504;2023-05-16T06:30:59;12.80;99.90
73939;DHT22;62291;47.554;8.504;2023-05-16T06:33:25;13.00;99.90
73939;DHT22;62291;47.554;8.504;2023-05-16T06:35:51;13.10;99.90
73939;DHT22;62291;47.554;8.504;2023-05-16T06:38:17;13.30;99.90
73939;DHT22;62291;47.554;8.504;2023-05-16T06:40:42;13.30;99.90
73939;DHT22;62291;47.554;8.504;2023-05-16T06:43:08;13.30;99.90
73939;DHT22;62291;47.554;8.504;2023-05-16T06:45:33;13.40;99.90
73939;DHT22;62291;47.554;8.504;2023-05-16T06:47:59;13.50;99.90
73939;DHT22;62291;47.554;8.504;2023-05-16T06:50:25;13.60;99.90
73939;DHT22;62291;47.554;8.504;2023-05-16T06:52:51;13.70;99.90
73939;DHT22;62291;47.554;8.504;2023-05-16T06:55:16;13.70;99.90
73939;DHT22;62291;47.554;8.504;2023-05-16T06:57:42;13.80;99.90
73939;DHT22;62291;47.554;8.504;2023-05-16T07:00:07;13.70;99.90
73939;DHT22;62291;47.554;8.504;2023-05-16T07:02:33;13.80;99.90
73939;DHT22;62291;47.554;8.504;2023-05-16T07:04:59;13.80;99.90
73939;DHT22;62291;47.554;8.504;2023-05-16T07:07:24;13.90;99.90
73939;DHT22;62291;47.554;8.504;2023-05-16T07:09:50;14.00;99.90
73939;DHT22;62291;47.554;8.504;2023-05-16T07:12:15;13.90;99.90
73939;DHT22;62291;47.554;8.504;2023-05-16T07:14:41;14.00;99.90
73939;DHT22;62291;47.554;8.504;2023-05-16T07:17:08;14.00;99.90
73939;DHT22;62291;47.554;8.504;2023-05-16T07:19:33;14.10;99.90
73939;DHT22;62291;47.554;8.504;2023-05-16T07:21:59;14.00;99.90
73939;DHT22;62291;47.554;8.504;2023-05-16T07:24:25;14.00;99.90
73939;DHT22;62291;47.554;8.504;2023-05-16T07:26:50;14.00;99.90
73939;DHT22;62291;47.554;8.504;2023-05-16T07:29:16;14.00;99.90
73939;DHT22;62291;47.554;8.504;2023-05-16T07:31:41;14.00;99.90
73939;DHT22;62291;47.554;8.504;2023-05-16T07:34:08;14.00;99.90
73939;DHT22;62291;47.554;8.504;2023-05-16T07:36:33;14.10;99.90
73939;DHT22;62291;47.554;8.504;2023-05-16T07:38:59;14.20;99.90
73939;DHT22;62291;47.554;8.504;2023-05-16T07:41:24;14.30;99.90
73939;DHT22;62291;47.554;8.504;2023-05-16T07:43:50;14.40;99.90
73939;DHT22;62291;47.554;8.504;2023-05-16T07:46:16;14.40;99.90
73939;DHT22;62291;47.554;8.504;2023-05-16T07:48:41;14.40;99.90
73939;DHT22;62291;47.554;8.504;2023-05-16T07:51:07;14.20;99.90
73939;DHT22;62291;47.554;8.504;2023-05-16T07:53:32;14.10;99.90
73939;DHT22;62291;47.554;8.504;2023-05-16T07:55:58;14.20;99.90
73939;DHT22;62291;47.554;8.504;2023-05-16T07:58:23;14.20;99.90
73939;DHT22;62291;47.554;8.504;2023-05-16T08:00:49;14.30;99.90
73939;DHT22;62291;47.554;8.504;2023-05-16T08:03:15;14.40;99.90
73939;DHT22;62291;47.554;8.504;2023-05-16T08:05:40;14.50;99.90
73939;DHT22;62291;47.554;8.504;2023-05-16T08:08:06;14.50;99.90
73939;DHT22;62291;47.554;8.504;2023-05-16T08:10:32;14.40;99.90
73939;DHT22;62291;47.554;8.504;2023-05-16T08:12:57;14.40;99.90
73939;DHT22;62291;47.554;8.504;2023-05-16T08:15:25;14.40;99.90
73939;DHT22;62291;47.554;8.504;2023-05-16T08:17:53;14.40;99.90
73939;DHT22;62291;47.554;8.504;2023-05-16T08:20:19;14.30;99.90
73939;DHT22;62291;47.554;8.504;2023-05-16T08:22:45;14.40;99.90
73939;DHT22;62291;47.554;8.504;2023-05-16T08:25:10;14.60;99.90
73939;DHT22;62291;47.554;8.504;2023-05-16T08:27:36;14.80;99.90
73939;DHT22;62291;47.554;8.504;2023-05-16T08:30:01;14.80;99.90
73939;DHT22;62291;47.554;8.504;2023-05-16T08:32:27;14.80;99.90
73939;DHT22;62291;47.554;8.504;2023-05-16T08:34:53;14.80;99.90
73939;DHT22;62291;47.554;8.504;2023-05-16T08:37:18;14.90;99.90
73939;DHT22;62291;47.554;8.504;2023-05-16T08:39:44;14.80;99.90
73939;DHT22;62291;47.554;8.504;2023-05-16T08:42:10;14.90;99.90
73939;DHT22;62291;47.554;8.504;2023-05-16T08:44:36;15.00;99.90
73939;DHT22;62291;47.554;8.504;2023-05-16T08:47:08;15.20;99.90
73939;DHT22;62291;47.554;8.504;2023-05-16T08:49:36;15.20;99.90
73939;DHT22;62291;47.554;8.504;2023-05-16T08:52:03;15.30;99.90
73939;DHT22;62291;47.554;8.504;2023-05-16T08:54:32;15.40;99.90
73939;DHT22;62291;47.554;8.504;2023-05-16T08:56:58;15.50;99.90
73939;DHT22;62291;47.554;8.504;2023-05-16T08:59:25;15.40;99.90
73939;DHT22;62291;47.554;8.504;2023-05-16T09:01:51;15.60;99.90
73939;DHT22;62291;47.554;8.504;2023-05-16T09:04:16;15.80;99.90
73939;DHT22;62291;47.554;8.504;2023-05-16T09:06:42;15.90;99.90
73939;DHT22;62291;47.554;8.504;2023-05-16T09:09:08;16.20;99.90
73939;DHT22;62291;47.554;8.504;2023-05-16T09:11:37;16.30;99.90
73939;DHT22;62291;47.554;8.504;2023-05-16T09:14:03;16.30;99.90
73939;DHT22;62291;47.554;8.504;2023-05-16T09:16:29;16.20;99.90
73939;DHT22;62291;47.554;8.504;2023-05-16T09:18:58;16.10;99.90
73939;DHT22;62291;47.554;8.504;2023-05-16T09:21:26;16.10;99.90
73939;DHT22;62291;47.554;8.504;2023-05-16T09:23:51;16.00;99.90
73939;DHT22;62291;47.554;8.504;2023-05-16T09:26:17;15.70;99.90
73939;DHT22;62291;47.554;8.504;2023-05-16T09:28:43;15.50;99.90
73939;DHT22;62291;47.554;8.504;2023-05-16T09:31:21;15.30;99.90
73939;DHT22;62291;47.554;8.504;2023-05-16T09:33:47;15.20;99.90
73939;DHT22;62291;47.554;8.504;2023-05-16T09:36:15;15.10;99.90
73939;DHT22;62291;47.554;8.504;2023-05-16T09:38:41;15.10;99.90
73939;DHT22;62291;47.554;8.504;2023-05-16T09:41:08;15.00;99.90
73939;DHT22;62291;47.554;8.504;2023-05-16T09:43:36;15.10;99.90
73939;DHT22;62291;47.554;8.504;2023-05-16T09:46:02;14.90;99.90
73939;DHT22;62291;47.554;8.504;2023-05-16T09:48:27;14.80;99.90
73939;DHT22;62291;47.554;8.504;2023-05-16T09:50:53;14.80;99.90
73939;DHT22;62291;47.554;8.504;2023-05-16T09:53:29;14.80;99.90
73939;DHT22;62291;47.554;8.504;2023-05-16T09:56:13;14.80;99.90
73939;DHT22;62291;47.554;8.504;2023-05-16T09:58:40;14.90;99.90
73939;DHT22;62291;47.554;8.504;2023-05-16T10:01:06;14.90;99.90
73939;DHT22;62291;47.554;8.504;2023-05-16T10:03:39;15.00;99.90
73939;DHT22;62291;47.554;8.504;2023-05-16T10:06:06;14.80;99.90
73939;DHT22;62291;47.554;8.504;2023-05-16T10:08:32;15.00;99.90
73939;DHT22;62291;47.554;8.504;2023-05-16T10:11:02;15.10;99.90
73939;DHT22;62291;47.554;8.504;2023-05-16T10:13:28;15.10;99.90
73939;DHT22;62291;47.554;8.504;2023-05-16T10:15:55;15.00;99.90
73939;DHT22;62291;47.554;8.504;2023-05-16T10:18:21;15.00;99.90
73939;DHT22;62291;47.554;8.504;2023-05-16T10:20:48;15.00;99.90
73939;DHT22;62291;47.554;8.504;2023-05-16T10:23:17;15.10;99.90
73939;DHT22;62291;47.554;8.504;2023-05-16T10:25:44;15.20;99.90
73939;DHT22;62291;47.554;8.504;2023-05-16T10:28:10;15.20;99.90
73939;DHT22;62291;47.554;8.504;2023-05-16T10:30:36;15.20;99.90
73939;DHT22;62291;47.554;8.504;2023-05-16T10:33:04;15.30;99.90
73939;DHT22;62291;47.554;8.504;2023-05-16T10:35:30;15.40;99.90
73939;DHT22;62291;47.554;8.504;2023-05-16T10:37:57;15.40;99.90
73939;DHT22;62291;47.554;8.504;2023-05-16T10:40:23;15.30;99.90
73939;DHT22;62291;47.554;8.504;2023-05-16T10:42:55;15.30;99.90
73939;DHT22;62291;47.554;8.504;2023-05-16T10:45:21;15.30;99.90
73939;DHT22;62291;47.554;8.504;2023-05-16T10:47:54;15.20;99.90
73939;DHT22;62291;47.554;8.504;2023-05-16T10:53:21;15.00;99.90
73939;DHT22;62291;47.554;8.504;2023-05-16T11:11:38;14.80;99.90
73939;DHT22;62291;47.554;8.504;2023-05-16T11:14:04;14.70;99.90
73939;DHT22;62291;47.554;8.504;2023-05-16T11:16:30;14.60;99.90
73939;DHT22;62291;47.554;8.504;2023-05-16T11:19:03;14.50;99.90
73939;DHT22;62291;47.554;8.504;2023-05-16T11:24:28;14.20;99.90
73939;DHT22;62291;47.554;8.504;2023-05-16T11:26:54;14.00;99.90
73939;DHT22;62291;47.554;8.504;2023-05-16T11:29:20;14.00;99.90
73939;DHT22;62291;47.554;8.504;2023-05-16T11:31:46;14.10;99.90
73939;DHT22;62291;47.554;8.504;2023-05-16T11:34:12;14.20;99.90
73939;DHT22;62291;47.554;8.504;2023-05-16T11:36:37;14.50;99.90
73939;DHT22;62291;47.554;8.504;2023-05-16T11:39:07;14.60;99.90
73939;DHT22;62291;47.554;8.504;2023-05-16T11:41:37;14.90;99.90
73939;DHT22;62291;47.554;8.504;2023-05-16T11:44:03;15.00;99.90
73939;DHT22;62291;47.554;8.504;2023-05-16T11:46:30;15.00;99.90
73939;DHT22;62291;47.554;8.504;2023-05-16T11:48:56;15.10;99.90
73939;DHT22;62291;47.554;8.504;2023-05-16T11:51:21;14.90;99.90
73939;DHT22;62291;47.554;8.504;2023-05-16T11:53:47;14.60;99.90
73939;DHT22;62291;47.554;8.504;2023-05-16T11:56:14;14.60;99.90
73939;DHT22;62291;47.554;8.504;2023-05-16T11:58:40;14.80;99.90
73939;DHT22;62291;47.554;8.504;2023-05-16T12:01:06;15.00;99.90
73939;DHT22;62291;47.554;8.504;2023-05-16T12:03:32;15.10;99.90
73939;DHT22;62291;47.554;8.504;2023-05-16T12:05:59;15.10;99.90
73939;DHT22;62291;47.554;8.504;2023-05-16T12:08:25;15.10;99.90
73939;DHT22;62291;47.554;8.504;2023-05-16T12:10:51;15.20;99.90
73939;DHT22;62291;47.554;8.504;2023-05-16T12:13:17;15.00;99.90
73939;DHT22;62291;47.554;8.504;2023-05-16T12:15:43;15.00;99.90
73939;DHT22;62291;47.554;8.504;2023-05-16T12:18:09;14.90;99.90
73939;DHT22;62291;47.554;8.504;2023-05-16T12:20:35;15.00;99.90
73939;DHT22;62291;47.554;8.504;2023-05-16T12:23:00;14.80;99.90
73939;DHT22;62291;47.554;8.504;2023-05-16T12:25:30;14.70;99.90
73939;DHT22;62291;47.554;8.504;2023-05-16T12:27:57;14.60;99.90
73939;DHT22;62291;47.554;8.504;2023-05-16T12:30:23;14.40;99.90
73939;DHT22;62291;47.554;8.504;2023-05-16T12:33:08;14.30;99.90
73939;DHT22;62291;47.554;8.504;2023-05-16T12:35:36;14.20;99.90
73939;DHT22;62291;47.554;8.504;2023-05-16T12:38:20;14.10;99.90
73939;DHT22;62291;47.554;8.504;2023-05-16T12:40:45;14.00;99.90
73939;DHT22;62291;47.554;8.504;2023-05-16T12:43:12;14.10;99.90
73939;DHT22;62291;47.554;8.504;2023-05-16T12:45:37;14.00;99.90
73939;DHT22;62291;47.554;8.504;2023-05-16T12:48:03;14.00;99.90
73939;DHT22;62291;47.554;8.504;2023-05-16T12:50:30;14.00;99.90
73939;DHT22;62291;47.554;8.504;2023-05-16T12:53:00;13.90;99.90
73939;DHT22;62291;47.554;8.504;2023-05-16T12:55:25;13.90;99.90
73939;DHT22;62291;47.554;8.504;2023-05-16T12:57:51;13.90;99.90
73939;DHT22;62291;47.554;8.504;2023-05-16T13:00:19;14.00;99.90
73939;DHT22;62291;47.554;8.504;2023-05-16T13:02:45;13.90;99.90
73939;DHT22;62291;47.554;8.504;2023-05-16T13:05:11;14.00;99.90
73939;DHT22;62291;47.554;8.504;2023-05-16T13:07:37;14.00;99.90
73939;DHT22;62291;47.554;8.504;2023-05-16T13:10:09;13.90;99.90
73939;DHT22;62291;47.554;8.504;2023-05-16T13:12:36;13.90;99.90
73939;DHT22;62291;47.554;8.504;2023-05-16T13:15:01;13.90;99.90
73939;DHT22;62291;47.554;8.504;2023-05-16T13:17:27;14.00;99.90
73939;DHT22;62291;47.554;8.504;2023-05-16T13:19:54;14.00;99.90
73939;DHT22;62291;47.554;8.504;2023-05-16T13:22:20;13.90;99.90
73939;DHT22;62291;47.554;8.504;2023-05-16T13:24:45;13.80;99.90
73939;DHT22;62291;47.554;8.504;2023-05-16T13:27:14;13.60;99.90
73939;DHT22;62291;47.554;8.504;2023-05-16T13:29:40;13.50;99.90
73939;DHT22;62291;47.554;8.504;2023-05-16T13:32:06;13.50;99.90
73939;DHT22;62291;47.554;8.504;2023-05-16T13:34:32;13.50;99.90
73939;DHT22;62291;47.554;8.504;2023-05-16T13:36:58;13.50;99.90
73939;DHT22;62291;47.554;8.504;2023-05-16T13:39:23;13.60;99.90
73939;DHT22;62291;47.554;8.504;2023-05-16T13:41:49;13.80;99.90
73939;DHT22;62291;47.554;8.504;2023-05-16T13:44:15;13.90;99.90
73939;DHT22;62291;47.554;8.504;2023-05-16T13:46:41;13.90;99.90
73939;DHT22;62291;47.554;8.504;2023-05-16T13:49:07;14.00;99.90
73939;DHT22;62291;47.554;8.504;2023-05-16T13:51:32;14.10;99.90
73939;DHT22;62291;47.554;8.504;2023-05-16T13:53:58;14.10;99.90
73939;DHT22;62291;47.554;8.504;2023-05-16T13:56:24;14.10;99.90
73939;DHT22;62291;47.554;8.504;2023-05-16T13:58:50;14.10;99.90
73939;DHT22;62291;47.554;8.504;2023-05-16T14:01:15;14.00;99.90
73939;DHT22;62291;47.554;8.504;2023-05-16T14:03:41;13.90;99.90
73939;DHT22;62291;47.554;8.504;2023-05-16T14:06:07;13.80;99.90
73939;DHT22;62291;47.554;8.504;2023-05-16T14:08:33;13.80;99.90
73939;DHT22;62291;47.554;8.504;2023-05-16T14:10:58;13.70;99.90
73939;DHT22;62291;47.554;8.504;2023-05-16T14:13:24;13.60;99.90
73939;DHT22;62291;47.554;8.504;2023-05-16T14:15:49;13.60;99.90
73939;DHT22;62291;47.554;8.504;2023-05-16T14:18:15;13.70;99.90
73939;DHT22;62291;47.554;8.504;2023-05-16T14:20:41;13.70;99.90
73939;DHT22;62291;47.554;8.504;2023-05-16T14:23:07;13.70;99.90
73939;DHT22;62291;47.554;8.504;2023-05-16T14:25:32;13.80;99.90
73939;DHT22;62291;47.554;8.504;2023-05-16T14:27:58;13.80;99.90
73939;DHT22;62291;47.554;8.504;2023-05-16T14:30:23;13.70;99.90
73939;DHT22;62291;47.554;8.504;2023-05-16T14:32:50;13.70;99.90
73939;DHT22;62291;47.554;8.504;2023-05-16T14:35:15;13.80;99.90
73939;DHT22;62291;47.554;8.504;2023-05-16T14:37:41;13.80;99.90
73939;DHT22;62291;47.554;8.504;2023-05-16T14:40:06;13.90;99.90
73939;DHT22;62291;47.554;8.504;2023-05-16T14:42:33;13.90;99.90
73939;DHT22;62291;47.554;8.504;2023-05-16T14:44:59;13.90;99.90
73939;DHT22;62291;47.554;8.504;2023-05-16T14:47:24;13.90;99.90
73939;DHT22;62291;47.554;8.504;2023-05-16T14:49:50;13.80;99.90
73939;DHT22;62291;47.554;8.504;2023-05-16T14:52:17;13.70;99.90
73939;DHT22;62291;47.554;8.504;2023-05-16T14:54:42;13.70;99.90
73939;DHT22;62291;47.554;8.504;2023-05-16T14:57:08;13.70;99.90
73939;DHT22;62291;47.554;8.504;2023-05-16T14:59:33;13.70;99.90
73939;DHT22;62291;47.554;8.504;2023-05-16T15:01:59;13.80;99.90
73939;DHT22;62291;47.554;8.504;2023-05-16T15:04:26;13.70;99.90
73939;DHT22;62291;47.554;8.504;2023-05-16T15:06:51;13.60;99.90
73939;DHT22;62291;47.554;8.504;2023-05-16T15:09:17;13.70;99.90
73939;DHT22;62291;47.554;8.504;2023-05-16T15:11:43;13.60;99.90
73939;DHT22;62291;47.554;8.504;2023-05-16T15:14:09;13.60;99.90
73939;DHT22;62291;47.554;8.504;2023-05-16T15:16:34;13.50;99.90
73939;DHT22;62291;47.554;8.504;2023-05-16T15:19:00;13.60;99.90
73939;DHT22;62291;47.554;8.504;2023-05-16T15:21:25;13.70;99.90
73939;DHT22;62291;47.554;8.504;2023-05-16T15:23:51;13.60;99.90
73939;DHT22;62291;47.554;8.504;2023-05-16T15:26:17;13.60;99.90
73939;DHT22;62291;47.554;8.504;2023-05-16T15:28:43;13.60;99.90
73939;DHT22;62291;47.554;8.504;2023-05-16T15:31:08;13.60;99.90
73939;DHT22;62291;47.554;8.504;2023-05-16T15:33:40;13.50;99.90
73939;DHT22;62291;47.554;8.504;2023-05-16T15:36:06;13.40;99.90
73939;DHT22;62291;47.554;8.504;2023-05-16T15:38:32;13.40;99.90
73939;DHT22;62291;47.554;8.504;2023-05-16T15:40:58;13.40;99.90
73939;DHT22;62291;47.554;8.504;2023-05-16T15:43:23;13.40;99.90
73939;DHT22;62291;47.554;8.504;2023-05-16T15:45:50;13.50;99.90
73939;DHT22;62291;47.554;8.504;2023-05-16T15:48:16;13.40;99.90
73939;DHT22;62291;47.554;8.504;2023-05-16T15:50:41;13.40;99.90
73939;DHT22;62291;47.554;8.504;2023-05-16T15:53:07;13.40;99.90
73939;DHT22;62291;47.554;8.504;2023-05-16T15:55:33;13.40;99.90
73939;DHT22;62291;47.554;8.504;2023-05-16T15:57:58;13.50;99.90